Blythe, CA (92225)

4:32 PM PST on December 04, 2016 (GMT -0800)
farmerman92225 | | Change Station

Elev 259 ft 33.62 °N, 114.66 °W | Updated 55 seconds ago

Clear
Clear
63.8 °F
Feels Like 63.8 °F
N
1.0
Wind Variable Wind from SW
Gusts 7.0 mph

Today
High -- | Low -- °F
--% Chance of Precip.
Yesterday
High -- | Low -- °F
Precip. -- in
Pressure 29.96 in
Visibility 10.0 miles
Clouds Clear
Dew Point 26 °F
Humidity 24%
Rainfall 0.00 in
Snow Depth Not available.
6:27 AM 4:30 PM
Waxing Crescent, 26% visible
METAR KBLH 042352Z AUTO 14005KT 10SM CLR 20/M07 A2997 RMK AO2 SLP144 T02001067 10211 20156 56020
Pressure 29.96 in
Visibility 10.0 miles
Clouds Clear
Dew Point 26 °F
Humidity 24%
Rainfall 0.00 in
Snow Depth Not available.
6:27 AM 4:30 PM
Waxing Crescent, 26% visible
METAR KBLH 042352Z AUTO 14005KT 10SM CLR 20/M07 A2997 RMK AO2 SLP144 T02001067 10211 20156 56020

10-Day Weather Forecast

Almanac

Astronomy

Dec. 04, 2016 Rise Set
Actual Time
Civil Twilight
Nautical Twilight
Astronomical Twilight
Moon
Length of Visible Light
Length of Day
Tomorrow will be .
, % of the Moon is Illuminated

Today's Extremes

State Highs State Lows

Community

WunderPhotos

Upload Photos

1,955,725 photos uploaded!

WunderBlog® & News

Nearby

Air Quality

  Air Quality AQ Index Pollutant
Not available.

Snow Depth

Station Depth Elevation

Earthquake Activity

City Distance Mag. Time & Date
Minimum magnitude displayed is 2.5.

Coastal Water Temperatures

Place Temperature

Stations

Nearby Weather Stations

Station Location Temp. Windchill Dew Point Humidity Wind Precip. Elev Updated Type
                   

Watches & Warnings

There are currently no watches in effect.